Погода Сутриминона 2 недели

Тверская область, Россия

21 мая-03 июня
  • 21мая
    Сегодня
    +9°
    +24°
    Небольшая облачность, возможен дождь с грозой
    ВремяПогодаТемператураВлажностьДавлениеВетер, м/сВероятность осадков
    00:00Ясно и безоблачно+11°C93 %747 мм0.1 м/с2 %
    03:00Ясно и безоблачно+10°C98 %748 мм0.0 м/с2 %
    06:00Небольшая облачность+11°C98 %748 мм0.0 м/с2 %
    09:00Ясно и безоблачно+19°C71 %749 мм0.5 м/с2 %
    12:00Практически безоблачно+21°C59 %749 мм0.9 м/с4 %
    15:00Небольшая облачность, возможен дождь с грозой+22°C64 %749 мм1.2 м/с33 %
    18:00Небольшая облачность+22°C64 %749 мм1.7 м/с34 %
    21:00Небольшая облачность+18°C73 %749 мм1.8 м/с2 %
  • 22мая
    Среда
    +9°
    +24°
    Ясно и безоблачно
    ВремяПогодаТемператураВлажностьДавлениеВетер, м/сВероятность осадков
    00:00Ясно и безоблачно+12°C67 %749 мм1.4 м/с2 %
    03:00Ясно и безоблачно+10°C67 %750 мм1.6 м/с2 %
    06:00Ясно и безоблачно+10°C67 %750 мм1.3 м/с2 %
    09:00Ясно и безоблачно+17°C61 %751 мм1.8 м/с2 %
    12:00Ясно и безоблачно+22°C48 %751 мм2.5 м/с5 %
    15:00Ясно и безоблачно+24°C42 %751 мм2.1 м/с7 %
    18:00Ясно и безоблачно+23°C39 %751 мм2.6 м/с6 %
    21:00Ясно и безоблачно+18°C52 %751 мм1.8 м/с2 %
  • 23мая
    Четверг
    +8°
    +23°
    Ясно и безоблачно
    ВремяПогодаТемператураВлажностьДавлениеВетер, м/сВероятность осадков
    00:00Ясно и безоблачно+13°C57 %752 мм1.6 м/с2 %
    03:00Ясно и безоблачно+10°C64 %753 мм2.1 м/с2 %
    06:00Ясно и безоблачно+10°C64 %754 мм2.1 м/с2 %
    09:00Ясно и безоблачно+16°C56 %755 мм3.1 м/с2 %
    12:00Ясно и безоблачно+20°C40 %756 мм3.9 м/с2 %
    15:00Ясно и безоблачно+22°C37 %755 мм3.0 м/с2 %
    18:00Ясно и безоблачно+22°C38 %755 мм2.8 м/с2 %
    21:00Ясно и безоблачно+17°C53 %756 мм1.9 м/с2 %
  • 24мая
    Пятница
    +8°
    +22°
    Ясно и безоблачно
    ВремяПогодаТемператураВлажностьДавлениеВетер, м/сВероятность осадков
    00:00Ясно и безоблачно+12°C60 %757 мм1.6 м/с2 %
    03:00Ясно и безоблачно+9°C58 %757 мм1.6 м/с2 %
    06:00Ясно и безоблачно+9°C61 %758 мм1.4 м/с2 %
    09:00Ясно и безоблачно+16°C45 %759 мм2.8 м/с2 %
    12:00Ясно и безоблачно+19°C36 %758 мм3.4 м/с2 %
    15:00Ясно и безоблачно+22°C33 %758 мм2.8 м/с2 %
    18:00Ясно и безоблачно+22°C34 %757 мм2.2 м/с2 %
    21:00Ясно и безоблачно+16°C52 %757 мм1.6 м/с2 %
  • 25мая
    Суббота
    +9°
    +24°
    Практически безоблачно
    ВремяПогодаТемператураВлажностьДавлениеВетер, м/сВероятность осадков
    00:00Ясно и безоблачно+11°C62 %758 мм1.3 м/с2 %
    03:00Ясно и безоблачно+9°C73 %757 мм1.3 м/с2 %
    06:00Ясно и безоблачно+9°C75 %757 мм1.2 м/с2 %
    09:00Ясно и безоблачно+17°C60 %757 мм1.7 м/с2 %
    12:00Небольшая облачность+21°C45 %757 мм2.4 м/с2 %
    15:00Практически безоблачно+24°C39 %756 мм2.0 м/с2 %
    18:00Небольшая облачность+24°C40 %755 мм2.0 м/с6 %
    21:00Облачно с прояснениями+18°C59 %755 мм1.2 м/с4 %
Мы используем cookies
Соглашаюсь